createdAt,value
2022-12-28T00:01:49.028Z,1.95
2022-12-28T00:04:15.688Z,1.95
2022-12-28T00:06:42.125Z,2.20
2022-12-28T00:09:11.312Z,2.20
2022-12-28T00:11:37.898Z,2.25
2022-12-28T00:14:04.318Z,1.92
2022-12-28T00:16:33.898Z,1.95
2022-12-28T00:19:02.936Z,2.17
2022-12-28T00:21:29.897Z,2.53
2022-12-28T00:23:58.846Z,1.90
2022-12-28T00:26:27.238Z,1.85
2022-12-28T00:28:58.362Z,1.67
2022-12-28T00:31:28.239Z,1.60
2022-12-28T00:33:54.709Z,1.60
2022-12-28T00:36:21.029Z,1.88
2022-12-28T00:38:47.409Z,1.52
2022-12-28T00:41:13.779Z,1.85
2022-12-28T00:43:40.224Z,2.08
2022-12-28T00:46:06.750Z,1.40
2022-12-28T00:48:33.179Z,1.63
2022-12-28T00:51:08.340Z,2.00
2022-12-28T00:53:35.044Z,1.80
2022-12-28T00:56:09.892Z,1.65
2022-12-28T00:58:36.694Z,1.38
2022-12-28T01:01:04.462Z,1.70
2022-12-28T01:03:31.078Z,1.55
2022-12-28T01:05:57.474Z,1.80
2022-12-28T01:08:23.917Z,1.88
2022-12-28T01:10:50.452Z,1.60
2022-12-28T01:13:16.864Z,2.10
2022-12-28T01:15:43.212Z,1.70
2022-12-28T01:18:09.590Z,1.80
2022-12-28T01:20:40.332Z,1.65
2022-12-28T01:23:07.023Z,1.85
2022-12-28T01:25:34.074Z,1.67
2022-12-28T01:28:00.391Z,1.73
2022-12-28T01:30:26.813Z,1.60
2022-12-28T01:32:53.364Z,1.73
2022-12-28T01:35:19.783Z,1.73
2022-12-28T01:37:46.139Z,1.58
2022-12-28T01:40:15.765Z,1.67
2022-12-28T01:42:42.180Z,1.42
2022-12-28T01:45:22.092Z,1.83
2022-12-28T01:47:53.195Z,1.48
2022-12-28T01:50:24.970Z,1.55
2022-12-28T01:53:04.864Z,2.10
2022-12-28T01:55:35.279Z,1.98
2022-12-28T01:58:10.130Z,1.98
2022-12-28T02:00:36.862Z,1.80
2022-12-28T02:03:10.645Z,1.83
2022-12-28T02:05:41.420Z,1.70
2022-12-28T02:08:17.166Z,1.60
2022-12-28T02:10:46.009Z,1.58
2022-12-28T02:13:15.363Z,2.33
2022-12-28T02:15:42.617Z,1.52
2022-12-28T02:18:09.906Z,1.45
2022-12-28T02:21:11.108Z,1.50
2022-12-28T02:24:07.543Z,1.67
2022-12-28T02:26:46.167Z,1.80
2022-12-28T02:29:37.582Z,1.70
2022-12-28T02:32:16.681Z,1.80
2022-12-28T02:35:08.725Z,1.65
2022-12-28T02:37:51.344Z,1.88
2022-12-28T02:40:23.745Z,1.77
2022-12-28T02:42:52.207Z,1.33
2022-12-28T02:45:53.867Z,1.75
2022-12-28T02:48:39.334Z,1.85
2022-12-28T02:51:21.840Z,1.67
2022-12-28T02:53:58.884Z,1.95
2022-12-28T02:56:44.331Z,2.20
2022-12-28T02:59:16.783Z,1.70
2022-12-28T03:01:49.299Z,1.70
2022-12-28T03:04:30.128Z,1.70
2022-12-28T03:07:26.879Z,2.00
2022-12-28T03:12:38.487Z,2.30
2022-12-28T03:15:10.427Z,1.90
2022-12-28T03:17:59.529Z,2.15
2022-12-28T03:20:49.496Z,1.70
2022-12-28T03:23:41.524Z,1.75
2022-12-28T03:26:29.627Z,2.00
2022-12-28T03:29:17.903Z,1.63
2022-12-28T03:31:44.730Z,1.50
2022-12-28T03:34:11.218Z,1.77
2022-12-28T03:37:10.100Z,1.90
2022-12-28T03:39:50.555Z,1.80
2022-12-28T03:42:44.346Z,1.88
2022-12-28T03:45:45.166Z,1.60
2022-12-28T03:48:09.259Z,1.58
2022-12-28T03:50:38.557Z,2.00
2022-12-28T03:53:04.898Z,1.50
2022-12-28T03:55:31.400Z,1.73
2022-12-28T03:57:57.852Z,1.75
2022-12-28T04:00:24.287Z,1.90
2022-12-28T04:02:50.721Z,1.73
2022-12-28T04:05:17.263Z,1.90
2022-12-28T04:07:43.707Z,1.55
2022-12-28T04:10:11.736Z,1.60
2022-12-28T04:12:38.181Z,1.63
2022-12-28T04:15:05.488Z,1.80
2022-12-28T04:17:31.871Z,1.63
2022-12-28T04:19:58.289Z,1.90
2022-12-28T04:22:24.647Z,1.60
2022-12-28T04:24:51.066Z,1.90
2022-12-28T04:27:17.488Z,1.83
2022-12-28T04:29:43.928Z,2.00
2022-12-28T04:32:10.285Z,2.28
2022-12-28T04:34:36.669Z,1.80
2022-12-28T04:37:03.035Z,2.17
2022-12-28T04:39:55.666Z,2.00
2022-12-28T04:47:08.457Z,2.00
2022-12-28T04:49:34.800Z,2.00
2022-12-28T04:52:01.181Z,1.92
2022-12-28T04:54:27.608Z,2.25
2022-12-28T04:56:53.950Z,2.05
2022-12-28T04:59:20.379Z,2.30
2022-12-28T05:01:46.942Z,2.00
2022-12-28T05:04:13.440Z,2.35
2022-12-28T05:06:39.946Z,2.15
2022-12-28T05:09:06.330Z,2.20
2022-12-28T05:11:32.840Z,2.20
2022-12-28T05:13:59.455Z,2.17
2022-12-28T05:16:27.856Z,2.30
2022-12-28T05:18:56.537Z,2.22
2022-12-28T05:21:25.788Z,2.13
2022-12-28T05:23:53.315Z,2.63
2022-12-28T05:26:22.601Z,2.15
2022-12-28T05:28:49.371Z,2.42
2022-12-28T05:31:21.793Z,2.30
2022-12-28T05:33:48.648Z,2.50
2022-12-28T05:36:17.803Z,2.75
2022-12-28T05:38:44.850Z,2.40
2022-12-28T05:41:23.268Z,2.40
2022-12-28T05:43:50.226Z,2.20
2022-12-28T05:46:24.593Z,2.20
2022-12-28T05:48:51.457Z,2.20
2022-12-28T05:51:19.815Z,1.98
2022-12-28T05:53:46.684Z,2.30
2022-12-28T05:56:14.524Z,2.10
2022-12-28T05:58:42.852Z,2.15
2022-12-28T06:01:17.648Z,2.10
2022-12-28T06:03:45.307Z,2.38
2022-12-28T06:06:17.404Z,2.30
2022-12-28T06:08:45.376Z,1.77
2022-12-28T06:11:15.164Z,2.20
2022-12-28T06:13:41.543Z,2.08
2022-12-28T06:16:11.337Z,2.17
2022-12-28T06:18:37.809Z,2.17
2022-12-28T06:21:07.294Z,2.10
2022-12-28T06:23:33.763Z,2.33
2022-12-28T06:26:02.125Z,2.35
2022-12-28T06:28:29.088Z,2.50
2022-12-28T06:31:03.521Z,2.60
2022-12-28T06:33:30.640Z,2.50
2022-12-28T06:35:56.996Z,2.30
2022-12-28T06:38:23.368Z,2.45
2022-12-28T06:41:12.077Z,2.53
2022-12-28T06:46:03.894Z,2.90
2022-12-28T06:48:31.480Z,2.50
2022-12-28T06:51:04.373Z,2.80
2022-12-28T06:53:34.356Z,2.95
2022-12-28T06:56:08.236Z,2.92
2022-12-28T06:58:34.771Z,2.90
2022-12-28T07:01:14.009Z,3.03
2022-12-28T07:03:41.666Z,2.70
2022-12-28T07:06:08.197Z,3.17
2022-12-28T07:08:35.940Z,3.00
2022-12-28T07:11:08.620Z,3.00
2022-12-28T07:13:35.495Z,3.13
2022-12-28T07:16:03.742Z,2.92
2022-12-28T07:18:30.146Z,2.80
2022-12-28T07:21:01.817Z,3.03
2022-12-28T07:23:30.145Z,3.20
2022-12-28T07:25:58.090Z,3.00
2022-12-28T07:28:24.991Z,3.47
2022-12-28T07:42:10.756Z,3.70
2022-12-28T07:44:38.380Z,3.17
2022-12-28T07:47:05.340Z,3.10
2022-12-28T07:49:31.698Z,3.20
2022-12-28T07:51:58.036Z,3.92
2022-12-28T07:54:24.443Z,3.53
2022-12-28T07:56:50.845Z,3.50
2022-12-28T07:59:17.165Z,3.30
2022-12-28T08:01:43.601Z,3.70
2022-12-28T08:04:15.892Z,3.70
2022-12-28T08:06:45.105Z,3.90
2022-12-28T08:09:13.735Z,3.92
2022-12-28T08:11:42.894Z,3.90
2022-12-28T08:14:10.357Z,4.00
2022-12-28T08:16:39.487Z,4.30
2022-12-28T08:19:07.295Z,4.43
2022-12-28T08:21:36.942Z,4.38
2022-12-28T08:24:03.996Z,4.05
2022-12-28T08:26:36.360Z,4.97
2022-12-28T08:29:07.094Z,4.28
2022-12-28T08:31:36.435Z,4.15
2022-12-28T08:34:04.721Z,4.38
2022-12-28T08:36:31.170Z,4.93
2022-12-28T08:38:57.806Z,4.75
2022-12-28T08:41:25.939Z,4.93
2022-12-28T08:43:53.816Z,5.22
2022-12-28T08:46:32.311Z,5.15
2022-12-28T08:49:00.109Z,4.78
2022-12-28T08:51:29.499Z,4.80
2022-12-28T08:53:55.859Z,4.90
2022-12-28T08:56:24.861Z,4.70
2022-12-28T08:58:52.026Z,4.57
2022-12-28T09:01:24.976Z,4.97
2022-12-28T09:03:53.675Z,5.43
2022-12-28T09:06:30.283Z,4.57
2022-12-28T09:09:06.621Z,4.40
2022-12-28T09:11:37.034Z,4.68
2022-12-28T09:14:05.208Z,4.60
2022-12-28T09:16:31.806Z,4.60
2022-12-28T09:19:00.447Z,4.68
2022-12-28T09:21:29.661Z,4.50
2022-12-28T09:23:56.071Z,4.53
2022-12-28T09:26:25.420Z,5.05
2022-12-28T09:28:54.497Z,4.85
2022-12-28T09:31:23.439Z,4.80
2022-12-28T09:36:46.749Z,5.20
2022-12-28T09:39:17.255Z,4.85
2022-12-28T09:41:50.108Z,4.68
2022-12-28T09:44:45.601Z,4.45
2022-12-28T09:47:36.932Z,4.65
2022-12-28T09:50:09.007Z,4.30
2022-12-28T09:52:49.652Z,4.72
2022-12-28T09:55:18.817Z,5.07
2022-12-28T09:57:49.387Z,4.55
2022-12-28T10:00:21.840Z,4.80
2022-12-28T10:03:01.877Z,4.20
2022-12-28T10:05:29.134Z,4.38
2022-12-28T10:07:58.435Z,4.40
2022-12-28T10:10:27.085Z,4.15
2022-12-28T10:12:54.009Z,4.20
2022-12-28T10:15:28.599Z,4.38
2022-12-28T10:17:55.056Z,4.18
2022-12-28T10:20:22.760Z,4.43
2022-12-28T10:22:55.895Z,4.00
2022-12-28T10:25:24.995Z,4.25
2022-12-28T10:27:52.231Z,3.85
2022-12-28T10:30:27.032Z,3.67
2022-12-28T10:33:03.068Z,3.85
2022-12-28T10:35:48.344Z,3.50
2022-12-28T10:38:30.931Z,3.72
2022-12-28T10:41:05.079Z,3.53
2022-12-28T10:43:36.621Z,3.35
2022-12-28T10:46:06.723Z,3.40
2022-12-28T10:48:38.064Z,3.47
2022-12-28T10:51:18.606Z,3.40
2022-12-28T10:53:48.301Z,3.10
2022-12-28T10:56:14.589Z,3.08
2022-12-28T10:58:45.948Z,3.60
2022-12-28T11:01:12.327Z,3.33
2022-12-28T11:03:40.289Z,3.13
2022-12-28T11:06:09.546Z,3.53
2022-12-28T11:08:36.702Z,3.50
2022-12-28T11:11:03.296Z,3.38
2022-12-28T11:13:30.075Z,3.83
2022-12-28T11:15:56.540Z,3.88
2022-12-28T11:18:23.145Z,4.25
2022-12-28T11:20:52.369Z,4.00
2022-12-28T11:23:21.682Z,4.32
2022-12-28T11:25:48.526Z,4.30
2022-12-28T11:28:22.436Z,3.63
2022-12-28T11:30:51.091Z,4.15
2022-12-28T11:33:44.605Z,4.38
2022-12-28T11:36:32.201Z,4.43
2022-12-28T11:38:58.841Z,4.38
2022-12-28T11:41:30.338Z,4.90
2022-12-28T11:44:02.847Z,4.32
2022-12-28T11:46:35.223Z,4.68
2022-12-28T11:49:26.205Z,4.70
2022-12-28T11:52:34.059Z,4.30
2022-12-28T11:55:39.495Z,4.38
2022-12-28T11:58:30.620Z,4.05
2022-12-28T12:00:59.861Z,4.22
2022-12-28T12:03:59.001Z,4.07
2022-12-28T12:06:43.462Z,4.05
2022-12-28T12:09:22.183Z,4.53
2022-12-28T12:11:50.671Z,4.18
2022-12-28T12:14:23.972Z,3.83
2022-12-28T12:17:02.834Z,3.75
2022-12-28T12:19:37.356Z,4.13
2022-12-28T12:22:13.971Z,4.60
2022-12-28T12:24:50.036Z,4.60
2022-12-28T12:27:32.284Z,4.15
2022-12-28T12:30:04.846Z,4.10
2022-12-28T12:32:42.735Z,4.68
2022-12-28T12:35:15.611Z,3.90
2022-12-28T12:38:29.354Z,3.95
2022-12-28T12:41:23.958Z,4.05
2022-12-28T12:44:29.921Z,3.50
2022-12-28T12:47:37.553Z,3.58
2022-12-28T12:50:24.470Z,3.90
2022-12-28T12:53:17.241Z,3.58
2022-12-28T12:55:55.999Z,3.75
2022-12-28T12:58:52.572Z,3.85
2022-12-28T13:01:27.582Z,3.70
2022-12-28T13:04:06.560Z,3.33
2022-12-28T13:06:35.660Z,3.72
2022-12-28T13:09:06.030Z,3.10
2022-12-28T13:11:36.893Z,3.70
2022-12-28T13:14:04.493Z,3.08
2022-12-28T13:16:32.525Z,3.25
2022-12-28T13:19:07.436Z,2.88
2022-12-28T13:21:43.034Z,3.10
2022-12-28T13:24:23.421Z,2.70
2022-12-28T13:26:50.276Z,2.60
2022-12-28T13:29:25.297Z,2.58
2022-12-28T13:31:52.362Z,3.23
2022-12-28T13:34:26.525Z,2.80
2022-12-28T13:37:13.655Z,2.50
2022-12-28T13:39:42.449Z,2.30
2022-12-28T13:42:25.645Z,2.05
2022-12-28T13:45:00.224Z,2.30
2022-12-28T13:47:35.058Z,2.13
2022-12-28T13:50:03.756Z,2.40
2022-12-28T13:52:38.570Z,2.40
2022-12-28T13:55:15.028Z,1.95
2022-12-28T13:57:48.186Z,2.42
2022-12-28T14:00:18.622Z,2.50
2022-12-28T14:02:46.359Z,2.40
2022-12-28T14:05:22.554Z,2.85
2022-12-28T14:07:50.618Z,2.58
2022-12-28T14:10:18.341Z,2.40
2022-12-28T14:12:45.696Z,2.30
2022-12-28T14:15:13.341Z,1.83
2022-12-28T14:17:41.076Z,2.13
2022-12-28T14:20:08.847Z,1.70
2022-12-28T14:22:38.059Z,2.17
2022-12-28T14:25:06.372Z,1.83
2022-12-28T14:27:36.899Z,1.67
2022-12-28T14:30:05.534Z,1.70
2022-12-28T14:32:39.010Z,1.67
2022-12-28T14:35:17.838Z,1.90
2022-12-28T14:37:46.453Z,1.90
2022-12-28T14:40:25.198Z,1.80
2022-12-28T14:42:53.971Z,1.67
2022-12-28T14:48:38.069Z,1.65
2022-12-28T14:51:23.509Z,1.67
2022-12-28T14:54:20.166Z,1.50
2022-12-28T14:56:52.029Z,1.38
2022-12-28T14:59:30.487Z,1.30
2022-12-28T15:00:25.715Z,1.65
2022-12-28T15:01:56.941Z,1.63
2022-12-28T15:04:38.368Z,1.30
2022-12-28T15:07:06.599Z,1.20
2022-12-28T15:09:33.758Z,1.42
2022-12-28T15:12:14.747Z,1.70
2022-12-28T15:14:41.508Z,1.73
2022-12-28T15:17:08.849Z,1.70
2022-12-28T15:19:35.411Z,1.33
2022-12-28T15:22:02.221Z,1.40
2022-12-28T15:24:33.775Z,1.60
2022-12-28T15:27:00.785Z,1.35
2022-12-28T15:29:47.869Z,1.80
2022-12-28T15:34:39.736Z,1.67
2022-12-28T15:37:06.089Z,1.70
2022-12-28T15:39:32.575Z,1.48
2022-12-28T15:41:58.912Z,1.75
2022-12-28T15:44:25.344Z,1.70
2022-12-28T15:46:51.971Z,1.40
2022-12-28T15:49:18.572Z,1.63
2022-12-28T15:51:45.876Z,1.67
2022-12-28T15:54:13.506Z,1.50
2022-12-28T15:56:41.598Z,1.90
2022-12-28T15:59:13.363Z,1.63
2022-12-28T16:01:42.484Z,2.03
2022-12-28T16:04:09.513Z,1.65
2022-12-28T16:06:41.811Z,1.70
2022-12-28T16:09:10.569Z,1.60
2022-12-28T16:11:37.216Z,1.92
2022-12-28T16:14:05.759Z,1.80
2022-12-28T16:16:36.743Z,2.03
2022-12-28T16:19:06.765Z,1.65
2022-12-28T16:21:33.579Z,1.67
2022-12-28T16:24:00.501Z,1.83
2022-12-28T16:26:28.082Z,1.65
2022-12-28T16:28:54.508Z,1.88
2022-12-28T16:31:23.651Z,1.70
2022-12-28T16:34:00.936Z,1.85
2022-12-28T16:36:27.635Z,1.67
2022-12-28T16:38:54.526Z,1.60
2022-12-28T16:41:21.797Z,1.60
2022-12-28T16:43:48.617Z,1.83
2022-12-28T16:46:15.394Z,1.90
2022-12-28T16:48:42.695Z,2.03
2022-12-28T16:51:09.576Z,2.42
2022-12-28T16:53:37.398Z,1.70
2022-12-28T16:56:06.049Z,1.65
2022-12-28T16:58:32.642Z,1.85
2022-12-28T17:01:08.044Z,1.70
2022-12-28T17:03:34.932Z,2.05
2022-12-28T17:06:01.710Z,1.98
2022-12-28T17:08:28.158Z,1.52
2022-12-28T17:10:54.739Z,1.60
2022-12-28T17:13:21.114Z,2.00
2022-12-28T17:15:47.453Z,1.95
2022-12-28T17:18:14.287Z,1.80
2022-12-28T17:20:41.128Z,1.77
2022-12-28T17:23:08.184Z,2.00
2022-12-28T17:25:35.542Z,1.88
2022-12-28T17:28:02.146Z,1.67
2022-12-28T17:30:28.719Z,1.50
2022-12-28T17:32:55.492Z,1.77
2022-12-28T17:35:22.005Z,1.67
2022-12-28T17:37:48.428Z,2.17
2022-12-28T17:40:14.987Z,2.00
2022-12-28T17:42:41.329Z,1.92
2022-12-28T17:45:11.719Z,1.70
2022-12-28T17:47:38.605Z,1.77
2022-12-28T17:50:06.249Z,1.70
2022-12-28T17:52:32.622Z,1.95
2022-12-28T17:54:59.115Z,1.75
2022-12-28T17:57:25.459Z,1.58
2022-12-28T17:59:51.805Z,1.70
2022-12-28T18:02:18.321Z,1.83
2022-12-28T18:04:44.949Z,1.70
2022-12-28T18:07:11.324Z,1.40
2022-12-28T18:09:37.725Z,1.90
2022-12-28T18:12:04.225Z,1.65
2022-12-28T18:14:30.590Z,1.70
2022-12-28T18:16:57.077Z,1.90
2022-12-28T18:19:23.531Z,1.58
2022-12-28T18:21:49.969Z,1.83
2022-12-28T18:24:17.911Z,1.95
2022-12-28T18:26:44.399Z,1.75
2022-12-28T18:29:10.914Z,1.83
2022-12-28T18:31:37.390Z,1.90
2022-12-28T18:34:04.240Z,1.70
2022-12-28T18:36:30.688Z,1.90
2022-12-28T18:38:57.043Z,1.50
2022-12-28T18:41:25.552Z,1.77
2022-12-28T18:43:57.059Z,1.88
2022-12-28T18:46:23.509Z,1.80
2022-12-28T18:48:49.855Z,1.40
2022-12-28T18:51:17.687Z,2.05
2022-12-28T18:53:44.456Z,1.70
2022-12-28T18:56:14.459Z,1.88
2022-12-28T18:58:42.002Z,1.63
2022-12-28T19:01:48.112Z,1.38
2022-12-28T19:04:03.877Z,1.75
2022-12-28T19:06:30.466Z,1.65
2022-12-28T19:09:00.517Z,2.28
2022-12-28T19:11:27.673Z,2.00
2022-12-28T19:13:54.271Z,2.20
2022-12-28T19:16:27.028Z,1.90
2022-12-28T19:18:57.030Z,1.83
2022-12-28T19:21:29.543Z,1.98
2022-12-28T19:23:58.451Z,2.25
2022-12-28T19:26:25.410Z,2.15
2022-12-28T19:28:52.428Z,2.00
2022-12-28T19:31:18.902Z,1.88
2022-12-28T19:33:45.391Z,1.80
2022-12-28T19:36:12.302Z,2.10
2022-12-28T19:38:39.022Z,2.13
2022-12-28T19:41:10.673Z,1.90
2022-12-28T19:43:37.437Z,2.10
2022-12-28T19:46:20.820Z,1.75
2022-12-28T19:48:47.347Z,1.80
2022-12-28T19:51:14.896Z,1.88
2022-12-28T19:53:41.744Z,2.00
2022-12-28T19:56:11.895Z,1.98
2022-12-28T19:58:39.570Z,1.90
2022-12-28T20:01:08.630Z,2.20
2022-12-28T20:03:35.402Z,1.50
2022-12-28T20:06:14.019Z,2.15
2022-12-28T20:08:45.797Z,1.77
2022-12-28T20:11:12.424Z,1.50
2022-12-28T20:13:38.874Z,2.30
2022-12-28T20:16:05.526Z,1.60
2022-12-28T20:18:32.029Z,1.80
2022-12-28T20:21:19.267Z,1.90
2022-12-28T20:23:48.146Z,1.77
2022-12-28T20:26:14.981Z,1.80
2022-12-28T20:28:41.308Z,1.40
2022-12-28T20:31:10.867Z,1.70
2022-12-28T20:33:37.681Z,1.92
2022-12-28T20:36:07.470Z,1.52
2022-12-28T20:38:34.812Z,1.80
2022-12-28T20:41:50.603Z,1.42
2022-12-28T20:44:25.857Z,1.52
2022-12-28T20:46:52.877Z,1.52
2022-12-28T20:49:19.386Z,1.60
2022-12-28T20:51:47.745Z,1.50
2022-12-28T20:54:14.237Z,1.50
2022-12-28T20:56:42.336Z,1.60
2022-12-28T20:59:10.421Z,1.50
2022-12-28T21:01:37.325Z,1.55
2022-12-28T21:04:04.870Z,1.58
2022-12-28T21:06:31.440Z,1.45
2022-12-28T21:08:57.957Z,1.52
2022-12-28T21:11:25.222Z,1.30
2022-12-28T21:13:51.651Z,1.55
2022-12-28T21:16:18.532Z,1.40
2022-12-28T21:18:44.956Z,1.50
2022-12-28T21:21:16.444Z,1.52
2022-12-28T21:23:42.919Z,1.80
2022-12-28T21:26:15.189Z,1.38
2022-12-28T21:28:42.545Z,1.58
2022-12-28T21:31:10.241Z,1.50
2022-12-28T21:33:37.685Z,1.58
2022-12-28T21:36:09.273Z,1.50
2022-12-28T21:38:38.198Z,1.70
2022-12-28T21:41:13.718Z,1.60
2022-12-28T21:43:40.735Z,1.60
2022-12-28T21:46:11.270Z,1.50
2022-12-28T21:48:38.744Z,1.60
2022-12-28T21:51:06.623Z,1.38
2022-12-28T21:53:33.046Z,1.50
2022-12-28T21:55:59.353Z,1.30
2022-12-28T21:58:25.684Z,1.63
2022-12-28T22:01:15.993Z,1.48
2022-12-28T22:04:01.799Z,1.63
2022-12-28T22:06:28.198Z,1.30
2022-12-28T22:09:13.089Z,1.70
2022-12-28T22:11:57.723Z,1.48
2022-12-28T22:14:24.173Z,1.45
2022-12-28T22:16:50.652Z,1.30
2022-12-28T22:19:17.112Z,1.90
2022-12-28T22:21:44.029Z,1.50
2022-12-28T22:24:10.529Z,1.50
2022-12-28T22:26:36.934Z,1.70
2022-12-28T22:29:03.721Z,1.75
2022-12-28T22:31:30.240Z,1.52
2022-12-28T22:33:59.389Z,1.77
2022-12-28T22:36:29.741Z,1.85
2022-12-28T22:38:56.291Z,1.55
2022-12-28T22:41:22.933Z,1.90
2022-12-28T22:43:51.237Z,1.70
2022-12-28T22:46:17.978Z,2.05
2022-12-28T22:48:44.739Z,1.80
2022-12-28T22:51:13.769Z,1.90
2022-12-28T22:53:40.594Z,1.90
2022-12-28T22:56:10.895Z,2.00
2022-12-28T22:58:37.729Z,2.08
2022-12-28T23:01:05.258Z,1.95
2022-12-28T23:03:32.061Z,1.80
2022-12-28T23:05:58.508Z,2.05
2022-12-28T23:08:25.006Z,1.67
2022-12-28T23:11:00.347Z,1.90
2022-12-28T23:13:27.775Z,2.05
2022-12-28T23:15:57.683Z,1.75
2022-12-28T23:18:56.454Z,1.80
2022-12-28T23:21:42.856Z,1.70
2022-12-28T23:27:14.660Z,1.58
2022-12-28T23:29:41.196Z,1.50
2022-12-28T23:32:07.611Z,1.50
2022-12-28T23:34:34.030Z,1.70
2022-12-28T23:37:00.671Z,1.80
2022-12-28T23:39:27.238Z,1.77
2022-12-28T23:41:53.779Z,1.70
2022-12-28T23:44:22.832Z,1.63
2022-12-28T23:46:55.196Z,1.90
2022-12-28T23:49:24.980Z,1.52
2022-12-28T23:51:51.430Z,1.60
2022-12-28T23:54:19.365Z,2.00
2022-12-28T23:56:46.178Z,1.65
2022-12-28T23:59:12.799Z,1.70
